createdAt,value
2019-03-13T00:01:56.503Z,99.90
2019-03-13T00:04:22.522Z,99.90
2019-03-13T00:06:48.544Z,99.90
2019-03-13T00:09:14.562Z,99.90
2019-03-13T00:11:40.558Z,99.90
2019-03-13T00:14:06.681Z,99.90
2019-03-13T00:16:33.089Z,99.90
2019-03-13T00:18:59.334Z,99.90
2019-03-13T00:21:25.342Z,99.90
2019-03-13T00:23:51.614Z,99.90
2019-03-13T00:26:17.909Z,99.90
2019-03-13T00:28:43.926Z,99.90
2019-03-13T00:31:09.944Z,99.90
2019-03-13T00:33:35.962Z,99.90
2019-03-13T00:36:01.973Z,99.90
2019-03-13T00:38:27.986Z,99.40
2019-03-13T00:40:54.030Z,98.60
2019-03-13T00:43:20.315Z,96.30
2019-03-13T00:45:46.335Z,95.60
2019-03-13T00:48:12.355Z,95.10
2019-03-13T00:50:38.383Z,94.60
2019-03-13T00:53:04.392Z,95.40
2019-03-13T00:55:30.409Z,95.20
2019-03-13T00:57:56.415Z,96.20
2019-03-13T01:00:40.983Z,96.70
2019-03-13T01:03:08.902Z,97.10
2019-03-13T01:05:39.658Z,97.10
2019-03-13T01:08:05.669Z,96.60
2019-03-13T01:10:31.911Z,96.10
2019-03-13T01:12:57.930Z,96.50
2019-03-13T01:15:23.958Z,97.70
2019-03-13T01:17:49.977Z,97.60
2019-03-13T01:20:16.083Z,98.60
2019-03-13T01:22:42.238Z,98.00
2019-03-13T01:25:09.114Z,99.10
2019-03-13T01:27:35.141Z,99.80
2019-03-13T01:30:01.468Z,99.90
2019-03-13T01:32:41.496Z,99.90
2019-03-13T01:35:15.635Z,99.90
2019-03-13T01:37:41.654Z,99.90
2019-03-13T01:40:09.474Z,99.90
2019-03-13T01:42:35.517Z,99.90
2019-03-13T01:45:02.456Z,99.90
2019-03-13T01:47:28.482Z,99.90
2019-03-13T01:49:54.494Z,99.90
2019-03-13T01:52:20.714Z,99.90
2019-03-13T01:54:46.725Z,98.30
2019-03-13T01:57:12.741Z,97.50
2019-03-13T01:59:38.770Z,96.00
2019-03-13T02:02:04.778Z,94.90
2019-03-13T02:04:30.802Z,94.20
2019-03-13T02:06:56.810Z,92.50
2019-03-13T02:09:22.835Z,91.00
2019-03-13T02:11:48.838Z,90.20
2019-03-13T02:14:14.877Z,90.30
2019-03-13T02:16:40.899Z,90.30
2019-03-13T02:19:07.017Z,88.70
2019-03-13T02:21:33.031Z,87.00
2019-03-13T02:23:59.050Z,87.20
2019-03-13T02:26:25.067Z,87.10
2019-03-13T02:28:51.092Z,85.20
2019-03-13T02:31:17.097Z,84.50
2019-03-13T02:33:43.103Z,83.00
2019-03-13T02:36:09.122Z,82.20
2019-03-13T02:38:35.137Z,81.60
2019-03-13T02:41:01.188Z,81.10
2019-03-13T02:43:27.495Z,78.90
2019-03-13T02:45:53.525Z,77.80
2019-03-13T02:48:19.540Z,76.30
2019-03-13T02:50:45.554Z,75.70
2019-03-13T02:53:11.579Z,75.70
2019-03-13T02:55:37.603Z,76.60
2019-03-13T02:58:03.627Z,76.30
2019-03-13T03:00:46.723Z,75.30
2019-03-13T03:03:14.638Z,76.10
2019-03-13T03:05:40.645Z,76.20
2019-03-13T03:08:06.993Z,76.30
2019-03-13T03:10:32.990Z,76.50
2019-03-13T03:12:59.024Z,76.40
2019-03-13T03:15:25.035Z,77.30
2019-03-13T03:17:51.055Z,76.90
2019-03-13T03:20:19.081Z,77.70
2019-03-13T03:22:45.111Z,77.50
2019-03-13T03:25:13.353Z,77.60
2019-03-13T03:27:39.702Z,78.70
2019-03-13T03:30:15.288Z,80.20
2019-03-13T03:32:41.677Z,81.20
2019-03-13T03:35:07.708Z,81.20
2019-03-13T03:37:33.801Z,82.60
2019-03-13T03:40:00.294Z,84.40
2019-03-13T03:42:26.590Z,85.90
2019-03-13T03:44:52.619Z,86.70
2019-03-13T03:47:18.637Z,87.40
2019-03-13T03:49:45.072Z,88.00
2019-03-13T03:52:11.078Z,89.10
2019-03-13T03:54:37.099Z,90.20
2019-03-13T03:57:03.120Z,90.40
2019-03-13T03:59:29.130Z,90.90
2019-03-13T04:01:55.139Z,91.00
2019-03-13T04:04:21.427Z,91.90
2019-03-13T04:06:47.444Z,92.60
2019-03-13T04:09:13.452Z,92.30
2019-03-13T04:11:39.806Z,92.50
2019-03-13T04:14:05.857Z,93.20
2019-03-13T04:16:31.942Z,93.30
2019-03-13T04:18:58.102Z,93.90
2019-03-13T04:21:24.109Z,95.40
2019-03-13T04:23:50.121Z,96.80
2019-03-13T04:26:16.494Z,97.30
2019-03-13T04:28:42.482Z,97.90
2019-03-13T04:31:08.538Z,98.00
2019-03-13T04:33:34.641Z,98.50
2019-03-13T04:36:00.667Z,98.90
2019-03-13T04:38:26.683Z,98.60
2019-03-13T04:40:52.719Z,98.60
2019-03-13T04:43:18.745Z,98.40
2019-03-13T04:45:45.073Z,98.00
2019-03-13T04:48:11.086Z,97.70
2019-03-13T04:50:37.310Z,98.00
2019-03-13T04:53:03.661Z,98.60
2019-03-13T04:55:29.974Z,99.10
2019-03-13T04:57:56.003Z,99.40
2019-03-13T05:00:22.120Z,99.30
2019-03-13T05:02:48.147Z,98.90
2019-03-13T05:05:37.627Z,97.50
2019-03-13T05:08:03.644Z,97.90
2019-03-13T05:10:29.659Z,96.90
2019-03-13T05:12:55.800Z,96.80
2019-03-13T05:15:21.916Z,96.60
2019-03-13T05:17:47.942Z,96.70
2019-03-13T05:20:14.061Z,96.10
2019-03-13T05:22:40.167Z,95.20
2019-03-13T05:25:06.183Z,94.90
2019-03-13T05:27:32.668Z,94.60
2019-03-13T05:29:58.674Z,93.90
2019-03-13T05:32:24.702Z,93.50
2019-03-13T05:34:50.714Z,92.80
2019-03-13T05:37:17.071Z,92.20
2019-03-13T05:39:43.394Z,92.40
2019-03-13T05:42:09.425Z,92.20
2019-03-13T05:44:35.437Z,91.80
2019-03-13T05:47:01.462Z,92.40
2019-03-13T05:49:27.482Z,92.50
2019-03-13T05:51:53.845Z,92.50
2019-03-13T05:54:20.162Z,92.30
2019-03-13T05:56:46.175Z,91.90
2019-03-13T05:59:12.203Z,91.10
2019-03-13T06:01:38.223Z,90.70
2019-03-13T06:04:04.237Z,90.10
2019-03-13T06:06:30.254Z,89.00
2019-03-13T06:08:56.270Z,87.90
2019-03-13T06:11:22.327Z,87.40
2019-03-13T06:13:48.336Z,86.30
2019-03-13T06:16:14.348Z,85.60
2019-03-13T06:18:40.633Z,85.20
2019-03-13T06:21:06.726Z,84.70
2019-03-13T06:23:32.747Z,85.20
2019-03-13T06:25:59.102Z,85.30
2019-03-13T06:28:25.106Z,85.60
2019-03-13T06:30:51.131Z,85.40
2019-03-13T06:33:17.543Z,85.00
2019-03-13T06:35:43.550Z,84.10
2019-03-13T06:38:09.572Z,82.90
2019-03-13T06:40:35.595Z,81.80
2019-03-13T06:43:01.714Z,81.90
2019-03-13T06:45:27.744Z,81.00
2019-03-13T06:47:53.760Z,80.80
2019-03-13T06:50:21.493Z,80.10
2019-03-13T06:52:47.517Z,77.70
2019-03-13T06:55:14.159Z,75.80
2019-03-13T06:57:40.183Z,75.70
2019-03-13T07:00:14.858Z,75.70
2019-03-13T07:02:45.322Z,75.10
2019-03-13T07:05:30.405Z,75.90
2019-03-13T07:08:14.695Z,77.80
2019-03-13T07:10:59.272Z,78.30
2019-03-13T07:13:33.195Z,80.00
2019-03-13T07:16:01.445Z,79.30
2019-03-13T07:18:32.399Z,80.30
2019-03-13T07:21:00.323Z,80.90
2019-03-13T07:23:34.626Z,79.80
2019-03-13T07:26:05.101Z,79.70
2019-03-13T07:28:42.076Z,77.60
2019-03-13T07:31:22.083Z,75.50
2019-03-13T07:33:52.570Z,75.50
2019-03-13T07:36:20.787Z,74.90
2019-03-13T07:38:48.730Z,75.20
2019-03-13T07:41:16.625Z,75.40
2019-03-13T07:44:01.304Z,69.80
2019-03-13T07:46:41.371Z,67.30
2019-03-13T07:49:12.324Z,68.50
2019-03-13T07:51:45.995Z,63.40
2019-03-13T07:54:25.926Z,60.00
2019-03-13T07:56:56.381Z,59.70
2019-03-13T07:59:36.618Z,62.80
2019-03-13T08:02:10.743Z,63.50
2019-03-13T08:04:55.061Z,64.80
2019-03-13T08:07:38.190Z,64.90
2019-03-13T08:10:28.104Z,64.70
2019-03-13T08:12:56.284Z,64.90
2019-03-13T08:15:26.994Z,66.20
2019-03-13T08:17:57.727Z,67.20
2019-03-13T08:20:34.657Z,69.00
2019-03-13T08:23:02.905Z,69.50
2019-03-13T08:25:33.615Z,70.00
2019-03-13T08:28:04.374Z,69.60
2019-03-13T08:30:35.108Z,68.40
2019-03-13T08:33:08.861Z,67.90
2019-03-13T08:35:36.784Z,67.70
2019-03-13T08:38:04.706Z,67.60
2019-03-13T08:40:32.941Z,68.50
2019-03-13T08:43:00.906Z,68.80
2019-03-13T08:45:38.022Z,68.60
2019-03-13T08:48:08.726Z,69.30
2019-03-13T08:50:45.399Z,69.80
2019-03-13T08:53:13.395Z,69.10
2019-03-13T08:55:59.177Z,68.60
2019-03-13T08:58:43.716Z,68.40
2019-03-13T09:01:14.451Z,68.50
2019-03-13T09:03:54.015Z,67.50
2019-03-13T09:06:30.767Z,67.40
2019-03-13T09:09:15.240Z,66.30
2019-03-13T09:11:46.144Z,65.90
2019-03-13T09:14:16.615Z,65.70
2019-03-13T09:16:53.098Z,64.70
2019-03-13T09:19:29.950Z,64.20
2019-03-13T09:22:00.976Z,63.30
2019-03-13T09:24:32.319Z,62.80
2019-03-13T09:27:00.230Z,62.50
2019-03-13T09:29:31.302Z,61.70
2019-03-13T09:32:16.102Z,62.00
2019-03-13T09:34:44.037Z,62.00
2019-03-13T09:37:14.481Z,62.20
2019-03-13T09:39:47.934Z,62.50
2019-03-13T09:42:21.447Z,63.00
2019-03-13T09:45:01.652Z,62.80
2019-03-13T09:47:29.827Z,62.60
2019-03-13T09:49:58.030Z,61.80
2019-03-13T09:52:31.840Z,62.00
2019-03-13T09:55:05.621Z,61.90
2019-03-13T09:57:33.543Z,62.10
2019-03-13T10:00:07.599Z,62.20
2019-03-13T10:02:41.566Z,62.50
2019-03-13T10:05:24.667Z,63.10
2019-03-13T10:07:52.586Z,63.50
2019-03-13T10:10:32.238Z,62.50
2019-03-13T10:13:15.267Z,61.80
2019-03-13T10:15:52.284Z,60.70
2019-03-13T10:18:20.524Z,61.10
2019-03-13T10:20:48.458Z,61.40
2019-03-13T10:23:19.434Z,62.80
2019-03-13T10:25:49.929Z,62.80
2019-03-13T10:28:23.595Z,61.90
2019-03-13T10:31:08.687Z,61.70
2019-03-13T10:33:36.670Z,59.50
2019-03-13T10:36:07.895Z,58.20
2019-03-13T10:38:41.651Z,58.00
2019-03-13T10:41:12.111Z,58.10
2019-03-13T10:43:45.918Z,58.20
2019-03-13T10:46:16.810Z,58.20
2019-03-13T10:48:53.169Z,58.00
2019-03-13T10:51:20.455Z,57.90
2019-03-13T10:53:48.398Z,57.70
2019-03-13T10:56:22.277Z,58.20
2019-03-13T10:59:06.597Z,58.70
2019-03-13T11:01:40.540Z,57.40
2019-03-13T11:04:14.132Z,57.00
2019-03-13T11:06:54.950Z,56.80
2019-03-13T11:09:22.985Z,56.30
2019-03-13T11:11:50.906Z,56.10
2019-03-13T11:14:35.182Z,55.40
2019-03-13T11:17:15.063Z,56.20
2019-03-13T11:20:01.228Z,56.40
2019-03-13T11:22:35.319Z,56.60
2019-03-13T11:25:12.538Z,56.30
2019-03-13T11:27:55.247Z,55.60
2019-03-13T11:30:25.996Z,54.50
2019-03-13T11:33:07.987Z,54.00
2019-03-13T11:35:52.503Z,53.50
2019-03-13T11:38:21.794Z,53.10
2019-03-13T11:40:55.269Z,53.20
2019-03-13T11:43:27.107Z,53.50
2019-03-13T11:45:55.459Z,53.50
2019-03-13T11:48:40.526Z,53.10
2019-03-13T11:51:17.315Z,53.50
2019-03-13T11:54:04.036Z,53.20
2019-03-13T11:56:37.978Z,52.60
2019-03-13T11:59:16.222Z,52.40
2019-03-13T12:01:47.342Z,52.70
2019-03-13T12:04:15.255Z,52.20
2019-03-13T12:06:46.423Z,52.60
2019-03-13T12:09:29.897Z,52.70
2019-03-13T12:12:15.746Z,52.70
2019-03-13T12:14:49.606Z,52.70
2019-03-13T12:17:21.166Z,53.50
2019-03-13T12:19:58.054Z,54.50
2019-03-13T12:22:47.386Z,54.70
2019-03-13T12:25:31.806Z,54.40
2019-03-13T12:28:14.871Z,54.50
2019-03-13T12:30:46.090Z,53.90
2019-03-13T12:33:23.442Z,53.50
2019-03-13T12:36:08.382Z,53.20
2019-03-13T12:38:36.600Z,53.50
2019-03-13T12:41:04.502Z,53.70
2019-03-13T12:43:35.192Z,53.90
2019-03-13T12:46:05.778Z,54.50
2019-03-13T12:48:39.626Z,55.20
2019-03-13T12:51:24.823Z,56.30
2019-03-13T12:54:04.731Z,56.50
2019-03-13T12:56:49.026Z,57.00
2019-03-13T12:59:19.822Z,57.30
2019-03-13T13:01:56.716Z,57.50
2019-03-13T13:04:30.203Z,58.30
2019-03-13T13:07:16.311Z,58.00
2019-03-13T13:09:44.228Z,58.30
2019-03-13T13:12:28.859Z,57.70
2019-03-13T13:14:56.761Z,57.50
2019-03-13T13:17:28.343Z,57.80
2019-03-13T13:19:54.354Z,57.90
2019-03-13T13:22:21.184Z,57.90
2019-03-13T13:24:47.193Z,57.50
2019-03-13T13:27:13.211Z,57.40
2019-03-13T13:29:39.224Z,57.60
2019-03-13T13:32:05.254Z,57.80
2019-03-13T13:34:31.262Z,57.90
2019-03-13T13:36:58.216Z,57.50
2019-03-13T13:39:24.230Z,57.50
2019-03-13T13:41:50.491Z,57.50
2019-03-13T13:44:16.520Z,58.30
2019-03-13T13:46:44.560Z,59.70
2019-03-13T13:49:11.124Z,59.70
2019-03-13T13:51:38.999Z,58.50
2019-03-13T13:54:05.030Z,58.80
2019-03-13T13:56:31.039Z,59.10
2019-03-13T13:58:57.097Z,59.10
2019-03-13T14:01:23.106Z,60.40
2019-03-13T14:03:49.135Z,62.50
2019-03-13T14:06:15.160Z,66.60
2019-03-13T14:08:41.171Z,68.90
2019-03-13T14:11:09.855Z,68.50
2019-03-13T14:13:35.882Z,69.30
2019-03-13T14:16:02.207Z,72.00
2019-03-13T14:18:28.535Z,70.90
2019-03-13T14:20:54.866Z,69.90
2019-03-13T14:23:21.125Z,70.00
2019-03-13T14:25:47.154Z,70.80
2019-03-13T14:28:13.170Z,71.90
2019-03-13T14:30:39.177Z,72.10
2019-03-13T14:33:05.219Z,74.30
2019-03-13T14:35:31.227Z,73.80
2019-03-13T14:37:57.272Z,72.10
2019-03-13T14:40:23.257Z,72.30
2019-03-13T14:42:49.702Z,72.60
2019-03-13T14:45:19.447Z,71.90
2019-03-13T14:47:45.462Z,71.00
2019-03-13T14:50:15.731Z,70.80
2019-03-13T14:52:41.759Z,70.80
2019-03-13T14:55:10.113Z,70.50
2019-03-13T14:57:36.146Z,70.50
2019-03-13T15:00:05.763Z,70.50
2019-03-13T15:02:31.762Z,70.60
2019-03-13T15:04:57.815Z,71.40
2019-03-13T15:07:23.839Z,73.00
2019-03-13T15:09:50.202Z,73.60
2019-03-13T15:12:16.434Z,76.00
2019-03-13T15:14:42.884Z,75.50
2019-03-13T15:17:08.885Z,76.70
2019-03-13T15:19:35.230Z,79.70
2019-03-13T15:22:01.226Z,82.50
2019-03-13T15:24:27.689Z,83.30
2019-03-13T15:26:53.702Z,81.90
2019-03-13T15:29:19.726Z,83.30
2019-03-13T15:31:45.743Z,84.30
2019-03-13T15:34:11.776Z,83.60
2019-03-13T15:36:37.785Z,85.20
2019-03-13T15:39:05.288Z,87.30
2019-03-13T15:41:31.299Z,89.70
2019-03-13T15:43:57.341Z,90.70
2019-03-13T15:46:23.334Z,91.70
2019-03-13T15:48:49.354Z,92.70
2019-03-13T15:51:15.395Z,93.20
2019-03-13T15:53:41.639Z,93.70
2019-03-13T15:56:07.944Z,93.30
2019-03-13T15:58:34.270Z,93.60
2019-03-13T16:01:00.282Z,93.60
2019-03-13T16:03:26.328Z,94.10
2019-03-13T16:05:52.336Z,94.40
2019-03-13T16:08:18.367Z,94.30
2019-03-13T16:10:44.392Z,94.40
2019-03-13T16:13:10.412Z,94.40
2019-03-13T16:15:38.328Z,94.40
2019-03-13T16:18:04.453Z,94.60
2019-03-13T16:20:30.572Z,94.30
2019-03-13T16:22:58.611Z,94.90
2019-03-13T16:25:24.617Z,95.20
2019-03-13T16:27:50.626Z,95.00
2019-03-13T16:30:23.033Z,96.10
2019-03-13T16:32:49.570Z,97.30
2019-03-13T16:35:16.106Z,97.80
2019-03-13T16:37:42.121Z,97.90
2019-03-13T16:40:17.964Z,99.00
2019-03-13T16:42:43.971Z,99.90
2019-03-13T16:45:12.798Z,99.90
2019-03-13T16:47:38.849Z,99.90
2019-03-13T16:50:08.673Z,99.90
2019-03-13T16:52:34.690Z,99.90
2019-03-13T16:55:00.715Z,99.90
2019-03-13T16:57:26.742Z,99.90
2019-03-13T17:00:00.668Z,99.90
2019-03-13T17:02:20.687Z,99.90
2019-03-13T17:04:46.726Z,99.90
2019-03-13T17:07:13.563Z,99.90
2019-03-13T17:09:39.799Z,99.90
2019-03-13T17:12:05.823Z,99.90
2019-03-13T17:14:32.150Z,99.90
2019-03-13T17:16:58.187Z,99.90
2019-03-13T17:19:24.198Z,99.90
2019-03-13T17:21:50.214Z,99.90
2019-03-13T17:24:16.239Z,99.90
2019-03-13T17:26:42.254Z,99.90
2019-03-13T17:29:08.275Z,99.90
2019-03-13T17:31:34.295Z,99.90
2019-03-13T17:34:00.324Z,99.90
2019-03-13T17:36:26.353Z,99.90
2019-03-13T17:38:52.600Z,99.90
2019-03-13T17:41:18.619Z,99.90
2019-03-13T17:43:44.941Z,99.90
2019-03-13T17:46:10.970Z,99.90
2019-03-13T17:48:36.975Z,99.90
2019-03-13T17:51:03.123Z,99.90
2019-03-13T17:53:29.134Z,99.90
2019-03-13T17:55:55.166Z,99.90
2019-03-13T17:58:22.638Z,99.90
2019-03-13T18:00:51.088Z,99.90
2019-03-13T18:03:18.066Z,99.90
2019-03-13T18:05:44.282Z,99.90
2019-03-13T18:08:10.634Z,99.90
2019-03-13T18:10:36.655Z,99.90
2019-03-13T18:13:03.190Z,99.90
2019-03-13T18:15:29.199Z,99.90
2019-03-13T18:17:55.219Z,99.90
2019-03-13T18:20:24.863Z,99.90
2019-03-13T18:22:51.599Z,99.90
2019-03-13T18:25:18.320Z,99.90
2019-03-13T18:27:45.027Z,99.90
2019-03-13T18:30:20.830Z,99.90
2019-03-13T18:32:46.858Z,99.90
2019-03-13T18:35:13.774Z,99.90
2019-03-13T18:37:40.131Z,99.90
2019-03-13T18:40:12.087Z,99.90
2019-03-13T18:42:38.134Z,99.90
2019-03-13T18:45:07.981Z,99.90
2019-03-13T18:47:34.667Z,99.90
2019-03-13T18:50:00.695Z,99.90
2019-03-13T18:52:27.023Z,99.90
2019-03-13T18:54:53.054Z,99.90
2019-03-13T18:57:19.070Z,99.90
2019-03-13T18:59:45.102Z,99.90
2019-03-13T19:02:11.128Z,99.90
2019-03-13T19:04:37.129Z,99.90
2019-03-13T19:07:03.481Z,99.90
2019-03-13T19:09:29.852Z,99.90
2019-03-13T19:11:56.024Z,99.90
2019-03-13T19:14:22.275Z,99.90
2019-03-13T19:16:48.298Z,99.90
2019-03-13T19:19:14.543Z,99.90
2019-03-13T19:21:40.564Z,99.90
2019-03-13T19:24:06.569Z,99.90
2019-03-13T19:26:32.618Z,99.90
2019-03-13T19:29:01.428Z,99.90
2019-03-13T19:31:26.991Z,99.90
2019-03-13T19:33:53.014Z,99.90
2019-03-13T19:36:19.052Z,99.90
2019-03-13T19:38:45.078Z,99.90
2019-03-13T19:41:12.507Z,99.90
2019-03-13T19:43:38.518Z,99.90
2019-03-13T19:46:04.556Z,99.90
2019-03-13T19:48:30.885Z,99.90
2019-03-13T19:50:56.910Z,99.90
2019-03-13T19:53:22.995Z,99.90
2019-03-13T19:55:49.142Z,99.90
2019-03-13T19:58:15.146Z,99.90
2019-03-13T20:00:41.196Z,99.90
2019-03-13T20:03:15.618Z,99.90
2019-03-13T20:05:45.794Z,99.90
2019-03-13T20:08:13.356Z,99.90
2019-03-13T20:10:38.138Z,99.90
2019-03-13T20:13:04.152Z,99.90
2019-03-13T20:15:31.698Z,99.90
2019-03-13T20:17:57.764Z,99.90
2019-03-13T20:20:23.997Z,99.90
2019-03-13T20:22:58.210Z,99.90
2019-03-13T20:25:24.242Z,99.90
2019-03-13T20:27:50.270Z,99.90
2019-03-13T20:30:23.029Z,99.90
2019-03-13T20:32:49.423Z,99.90
2019-03-13T20:35:15.725Z,99.90
2019-03-13T20:37:41.805Z,99.90
2019-03-13T20:40:19.608Z,99.90
2019-03-13T20:42:45.922Z,99.90
2019-03-13T20:45:14.659Z,99.90
2019-03-13T20:47:42.002Z,99.90
2019-03-13T20:50:08.652Z,99.90
2019-03-13T20:52:34.644Z,99.90
2019-03-13T20:55:01.893Z,99.90
2019-03-13T20:57:27.988Z,99.90
2019-03-13T20:59:54.354Z,99.90
2019-03-13T21:02:20.669Z,99.90
2019-03-13T21:04:46.692Z,99.90
2019-03-13T21:07:12.873Z,99.90
2019-03-13T21:09:38.900Z,99.90
2019-03-13T21:12:04.959Z,99.90
2019-03-13T21:14:31.084Z,99.90
2019-03-13T21:16:57.105Z,99.90
2019-03-13T21:19:23.140Z,99.90
2019-03-13T21:21:49.199Z,99.90
2019-03-13T21:24:15.555Z,99.90
2019-03-13T21:26:41.719Z,99.90
2019-03-13T21:29:07.809Z,99.90
2019-03-13T21:31:33.861Z,99.90
2019-03-13T21:34:00.403Z,99.90
2019-03-13T21:36:27.041Z,99.90
2019-03-13T21:38:53.142Z,99.90
2019-03-13T21:41:19.159Z,99.90
2019-03-13T21:43:45.275Z,99.90
2019-03-13T21:46:11.555Z,99.90
2019-03-13T21:48:37.612Z,99.90
2019-03-13T21:51:03.665Z,99.90
2019-03-13T21:53:29.768Z,99.90
2019-03-13T21:55:55.886Z,99.90
2019-03-13T21:58:22.131Z,99.90
2019-03-13T22:00:48.251Z,99.90
2019-03-13T22:03:14.380Z,99.90
2019-03-13T22:05:40.460Z,99.90
2019-03-13T22:08:06.642Z,99.90
2019-03-13T22:10:32.674Z,99.90
2019-03-13T22:12:58.751Z,99.90
2019-03-13T22:15:25.297Z,99.90
2019-03-13T22:17:51.435Z,99.90
2019-03-13T22:20:17.993Z,99.90
2019-03-13T22:22:44.221Z,99.90
2019-03-13T22:25:15.454Z,99.90
2019-03-13T22:27:41.615Z,99.90
2019-03-13T22:30:23.640Z,99.90
2019-03-13T22:32:50.641Z,99.90
2019-03-13T22:35:16.997Z,99.90
2019-03-13T22:37:43.015Z,99.90
2019-03-13T22:40:14.129Z,99.90
2019-03-13T22:42:40.504Z,99.90
2019-03-13T22:45:09.560Z,99.90
2019-03-13T22:47:42.489Z,99.90
2019-03-13T22:50:07.322Z,99.90
2019-03-13T22:52:33.347Z,99.90
2019-03-13T22:54:59.528Z,99.90
2019-03-13T22:57:27.647Z,99.90
2019-03-13T22:59:53.646Z,99.90
2019-03-13T23:02:20.146Z,99.90
2019-03-13T23:04:46.240Z,99.90
2019-03-13T23:07:12.270Z,99.90
2019-03-13T23:09:38.287Z,99.90
2019-03-13T23:12:04.334Z,99.90
2019-03-13T23:14:30.616Z,99.90
2019-03-13T23:16:56.672Z,99.90
2019-03-13T23:19:22.697Z,99.90
2019-03-13T23:21:48.727Z,99.90
2019-03-13T23:24:14.750Z,99.90
2019-03-13T23:26:40.767Z,99.90
2019-03-13T23:29:06.786Z,99.90
2019-03-13T23:31:32.918Z,99.90
2019-03-13T23:33:59.176Z,99.90
2019-03-13T23:36:25.280Z,99.90
2019-03-13T23:38:51.570Z,99.90
2019-03-13T23:41:17.568Z,99.90
2019-03-13T23:43:43.807Z,99.90
2019-03-13T23:46:10.072Z,99.90
2019-03-13T23:48:36.096Z,99.90
2019-03-13T23:51:02.142Z,99.90
2019-03-13T23:53:28.230Z,99.90
2019-03-13T23:55:54.312Z,99.90
2019-03-13T23:58:20.355Z,99.90
